sensor_id;sensor_type;location;lat;lon;timestamp;temperature;humidity
1175;DHT22;576;48.418;10.074;2024-01-11T00:00:49;21.40;51.10
1175;DHT22;576;48.418;10.074;2024-01-11T00:03:18;21.40;51.10
1175;DHT22;576;48.418;10.074;2024-01-11T00:05:47;21.40;51.10
1175;DHT22;576;48.418;10.074;2024-01-11T00:08:16;21.40;51.10
1175;DHT22;576;48.418;10.074;2024-01-11T00:10:44;21.30;51.10
1175;DHT22;576;48.418;10.074;2024-01-11T00:13:12;21.30;51.10
1175;DHT22;576;48.418;10.074;2024-01-11T00:15:40;21.30;51.10
1175;DHT22;576;48.418;10.074;2024-01-11T00:18:09;21.30;51.10
1175;DHT22;576;48.418;10.074;2024-01-11T00:20:37;21.30;51.10
1175;DHT22;576;48.418;10.074;2024-01-11T00:23:07;21.30;51.10
1175;DHT22;576;48.418;10.074;2024-01-11T00:25:35;21.30;51.10
1175;DHT22;576;48.418;10.074;2024-01-11T00:28:04;21.30;51.10
1175;DHT22;576;48.418;10.074;2024-01-11T00:30:32;21.30;51.10
1175;DHT22;576;48.418;10.074;2024-01-11T00:33:00;21.30;51.10
1175;DHT22;576;48.418;10.074;2024-01-11T00:35:29;21.30;51.10
1175;DHT22;576;48.418;10.074;2024-01-11T00:37:58;21.30;51.10
1175;DHT22;576;48.418;10.074;2024-01-11T00:40:27;21.30;51.10
1175;DHT22;576;48.418;10.074;2024-01-11T00:42:56;21.30;51.00
1175;DHT22;576;48.418;10.074;2024-01-11T00:45:24;21.30;51.10
1175;DHT22;576;48.418;10.074;2024-01-11T00:47:52;21.20;51.00
1175;DHT22;576;48.418;10.074;2024-01-11T00:50:20;21.20;51.00
1175;DHT22;576;48.418;10.074;2024-01-11T00:52:49;21.20;51.00
1175;DHT22;576;48.418;10.074;2024-01-11T00:55:17;21.20;51.00
1175;DHT22;576;48.418;10.074;2024-01-11T00:57:47;21.20;51.00
1175;DHT22;576;48.418;10.074;2024-01-11T01:00:15;21.20;51.00
1175;DHT22;576;48.418;10.074;2024-01-11T01:02:43;21.20;51.00
1175;DHT22;576;48.418;10.074;2024-01-11T01:05:12;21.20;51.00
1175;DHT22;576;48.418;10.074;2024-01-11T01:07:40;21.20;51.00
1175;DHT22;576;48.418;10.074;2024-01-11T01:10:08;21.20;51.00
1175;DHT22;576;48.418;10.074;2024-01-11T01:12:37;21.10;51.00
1175;DHT22;576;48.418;10.074;2024-01-11T01:15:07;21.10;51.00
1175;DHT22;576;48.418;10.074;2024-01-11T01:17:36;21.10;51.00
1175;DHT22;576;48.418;10.074;2024-01-11T01:20:06;21.10;50.90
1175;DHT22;576;48.418;10.074;2024-01-11T01:22:35;21.10;51.00
1175;DHT22;576;48.418;10.074;2024-01-11T01:25:03;21.10;51.00
1175;DHT22;576;48.418;10.074;2024-01-11T01:27:32;21.10;51.00
1175;DHT22;576;48.418;10.074;2024-01-11T01:30:00;21.10;50.90
1175;DHT22;576;48.418;10.074;2024-01-11T01:32:30;21.10;50.90
1175;DHT22;576;48.418;10.074;2024-01-11T01:34:58;21.10;50.90
1175;DHT22;576;48.418;10.074;2024-01-11T01:37:26;21.00;50.90
1175;DHT22;576;48.418;10.074;2024-01-11T01:39:55;21.00;50.90
1175;DHT22;576;48.418;10.074;2024-01-11T01:42:23;21.00;50.90
1175;DHT22;576;48.418;10.074;2024-01-11T01:44:51;21.00;50.90
1175;DHT22;576;48.418;10.074;2024-01-11T01:47:19;21.00;50.80
1175;DHT22;576;48.418;10.074;2024-01-11T01:49:49;21.00;50.90
1175;DHT22;576;48.418;10.074;2024-01-11T01:52:19;21.00;50.90
1175;DHT22;576;48.418;10.074;2024-01-11T01:54:49;21.00;50.90
1175;DHT22;576;48.418;10.074;2024-01-11T01:57:19;21.00;50.80
1175;DHT22;576;48.418;10.074;2024-01-11T01:59:50;21.00;50.80
1175;DHT22;576;48.418;10.074;2024-01-11T02:02:19;21.00;50.80
1175;DHT22;576;48.418;10.074;2024-01-11T02:04:49;21.00;50.70
1175;DHT22;576;48.418;10.074;2024-01-11T02:07:19;21.00;50.70
1175;DHT22;576;48.418;10.074;2024-01-11T02:09:47;21.00;50.80
1175;DHT22;576;48.418;10.074;2024-01-11T02:12:15;20.90;50.70
1175;DHT22;576;48.418;10.074;2024-01-11T02:14:44;20.90;50.80
1175;DHT22;576;48.418;10.074;2024-01-11T02:17:13;20.90;50.70
1175;DHT22;576;48.418;10.074;2024-01-11T02:19:41;20.90;50.70
1175;DHT22;576;48.418;10.074;2024-01-11T02:22:15;20.90;50.70
1175;DHT22;576;48.418;10.074;2024-01-11T02:24:50;20.90;50.70
1175;DHT22;576;48.418;10.074;2024-01-11T02:27:19;20.90;50.60
1175;DHT22;576;48.418;10.074;2024-01-11T02:29:48;20.90;50.60
1175;DHT22;576;48.418;10.074;2024-01-11T02:32:16;20.90;50.60
1175;DHT22;576;48.418;10.074;2024-01-11T02:34:44;20.90;50.60
1175;DHT22;576;48.418;10.074;2024-01-11T02:37:13;20.90;50.60
1175;DHT22;576;48.418;10.074;2024-01-11T02:39:41;20.80;50.60
1175;DHT22;576;48.418;10.074;2024-01-11T02:42:11;20.80;50.60
1175;DHT22;576;48.418;10.074;2024-01-11T02:44:39;20.80;50.50
1175;DHT22;576;48.418;10.074;2024-01-11T02:47:07;20.80;50.60
1175;DHT22;576;48.418;10.074;2024-01-11T02:49:36;20.80;50.60
1175;DHT22;576;48.418;10.074;2024-01-11T02:52:05;20.80;50.60
1175;DHT22;576;48.418;10.074;2024-01-11T02:54:33;20.80;50.60
1175;DHT22;576;48.418;10.074;2024-01-11T02:57:01;20.80;50.60
1175;DHT22;576;48.418;10.074;2024-01-11T02:59:31;20.80;50.60
1175;DHT22;576;48.418;10.074;2024-01-11T03:01:59;20.80;50.60
1175;DHT22;576;48.418;10.074;2024-01-11T03:04:27;20.70;50.60
1175;DHT22;576;48.418;10.074;2024-01-11T03:06:55;20.70;50.60
1175;DHT22;576;48.418;10.074;2024-01-11T03:09:23;20.70;50.80
1175;DHT22;576;48.418;10.074;2024-01-11T03:11:52;20.70;50.70
1175;DHT22;576;48.418;10.074;2024-01-11T03:14:20;20.70;50.70
1175;DHT22;576;48.418;10.074;2024-01-11T03:16:50;20.70;50.70
1175;DHT22;576;48.418;10.074;2024-01-11T03:19:18;20.70;50.70
1175;DHT22;576;48.418;10.074;2024-01-11T03:21:47;20.70;50.70
1175;DHT22;576;48.418;10.074;2024-01-11T03:24:15;20.60;50.70
1175;DHT22;576;48.418;10.074;2024-01-11T03:26:43;20.60;50.70
1175;DHT22;576;48.418;10.074;2024-01-11T03:29:11;20.60;50.70
1175;DHT22;576;48.418;10.074;2024-01-11T03:31:39;20.60;50.80
1175;DHT22;576;48.418;10.074;2024-01-11T03:34:11;20.60;50.70
1175;DHT22;576;48.418;10.074;2024-01-11T03:36:40;20.60;50.70
1175;DHT22;576;48.418;10.074;2024-01-11T03:39:08;20.60;50.70
1175;DHT22;576;48.418;10.074;2024-01-11T03:41:36;20.60;50.70
1175;DHT22;576;48.418;10.074;2024-01-11T03:44:05;20.60;50.70
1175;DHT22;576;48.418;10.074;2024-01-11T03:46:33;20.60;50.70
1175;DHT22;576;48.418;10.074;2024-01-11T03:49:02;20.60;50.70
1175;DHT22;576;48.418;10.074;2024-01-11T03:51:31;20.60;50.70
1175;DHT22;576;48.418;10.074;2024-01-11T03:53:59;20.60;50.70
1175;DHT22;576;48.418;10.074;2024-01-11T03:56:28;20.50;50.70
1175;DHT22;576;48.418;10.074;2024-01-11T03:58:56;20.50;50.70
1175;DHT22;576;48.418;10.074;2024-01-11T04:01:24;20.50;50.70
1175;DHT22;576;48.418;10.074;2024-01-11T04:03:52;20.50;50.70
1175;DHT22;576;48.418;10.074;2024-01-11T04:06:21;20.50;50.70
1175;DHT22;576;48.418;10.074;2024-01-11T04:08:52;20.50;50.70
1175;DHT22;576;48.418;10.074;2024-01-11T04:11:21;20.50;50.70
1175;DHT22;576;48.418;10.074;2024-01-11T04:13:49;20.50;50.70
1175;DHT22;576;48.418;10.074;2024-01-11T04:16:18;20.50;50.60
1175;DHT22;576;48.418;10.074;2024-01-11T04:18:46;20.50;50.60
1175;DHT22;576;48.418;10.074;2024-01-11T04:21:22;20.50;50.70
1175;DHT22;576;48.418;10.074;2024-01-11T04:23:51;20.50;50.70
1175;DHT22;576;48.418;10.074;2024-01-11T04:26:19;20.40;50.70
1175;DHT22;576;48.418;10.074;2024-01-11T04:28:48;20.40;50.70
1175;DHT22;576;48.418;10.074;2024-01-11T04:31:17;20.40;50.60
1175;DHT22;576;48.418;10.074;2024-01-11T04:33:46;20.40;50.70
1175;DHT22;576;48.418;10.074;2024-01-11T04:36:14;20.40;50.70
1175;DHT22;576;48.418;10.074;2024-01-11T04:38:42;20.40;50.70
1175;DHT22;576;48.418;10.074;2024-01-11T04:41:13;20.40;50.70
1175;DHT22;576;48.418;10.074;2024-01-11T04:43:43;20.40;50.70
1175;DHT22;576;48.418;10.074;2024-01-11T04:46:15;20.40;50.70
1175;DHT22;576;48.418;10.074;2024-01-11T04:48:44;20.40;50.70
1175;DHT22;576;48.418;10.074;2024-01-11T04:51:13;20.40;50.70
1175;DHT22;576;48.418;10.074;2024-01-11T04:53:42;20.40;50.70
1175;DHT22;576;48.418;10.074;2024-01-11T04:56:14;20.40;50.70
1175;DHT22;576;48.418;10.074;2024-01-11T04:58:44;20.40;50.60
1175;DHT22;576;48.418;10.074;2024-01-11T05:01:13;20.30;50.60
1175;DHT22;576;48.418;10.074;2024-01-11T05:03:42;20.40;50.70
1175;DHT22;576;48.418;10.074;2024-01-11T05:06:15;20.30;50.60
1175;DHT22;576;48.418;10.074;2024-01-11T05:08:44;20.40;50.60
1175;DHT22;576;48.418;10.074;2024-01-11T05:11:17;20.40;50.60
1175;DHT22;576;48.418;10.074;2024-01-11T05:13:46;20.40;50.50
1175;DHT22;576;48.418;10.074;2024-01-11T05:16:20;20.40;50.40
1175;DHT22;576;48.418;10.074;2024-01-11T05:18:49;20.40;50.40
1175;DHT22;576;48.418;10.074;2024-01-11T05:21:18;20.40;50.20
1175;DHT22;576;48.418;10.074;2024-01-11T05:23:46;20.50;50.10
1175;DHT22;576;48.418;10.074;2024-01-11T05:26:17;20.50;50.00
1175;DHT22;576;48.418;10.074;2024-01-11T05:28:46;20.50;49.90
1175;DHT22;576;48.418;10.074;2024-01-11T05:31:15;20.60;49.80
1175;DHT22;576;48.418;10.074;2024-01-11T05:33:44;20.60;49.80
1175;DHT22;576;48.418;10.074;2024-01-11T05:36:14;20.60;49.70
1175;DHT22;576;48.418;10.074;2024-01-11T05:38:42;20.60;49.70
1175;DHT22;576;48.418;10.074;2024-01-11T05:41:10;20.60;49.60
1175;DHT22;576;48.418;10.074;2024-01-11T05:43:40;20.70;49.60
1175;DHT22;576;48.418;10.074;2024-01-11T05:46:09;20.70;49.60
1175;DHT22;576;48.418;10.074;2024-01-11T05:48:37;20.70;49.50
1175;DHT22;576;48.418;10.074;2024-01-11T05:51:06;20.80;49.60
1175;DHT22;576;48.418;10.074;2024-01-11T05:53:34;20.80;49.70
1175;DHT22;576;48.418;10.074;2024-01-11T05:56:07;20.80;49.90
1175;DHT22;576;48.418;10.074;2024-01-11T05:58:36;20.90;50.10
1175;DHT22;576;48.418;10.074;2024-01-11T06:01:06;20.90;50.30
1175;DHT22;576;48.418;10.074;2024-01-11T06:03:35;20.90;50.50
1175;DHT22;576;48.418;10.074;2024-01-11T06:06:06;21.00;50.60
1175;DHT22;576;48.418;10.074;2024-01-11T06:08:35;21.00;50.70
1175;DHT22;576;48.418;10.074;2024-01-11T06:11:03;21.10;50.80
1175;DHT22;576;48.418;10.074;2024-01-11T06:13:33;21.10;50.90
1175;DHT22;576;48.418;10.074;2024-01-11T06:16:01;21.10;50.90
1175;DHT22;576;48.418;10.074;2024-01-11T06:18:30;21.10;50.90
1175;DHT22;576;48.418;10.074;2024-01-11T06:20:59;21.10;50.90
1175;DHT22;576;48.418;10.074;2024-01-11T06:23:27;21.20;50.90
1175;DHT22;576;48.418;10.074;2024-01-11T06:25:55;21.20;50.90
1175;DHT22;576;48.418;10.074;2024-01-11T06:28:24;21.20;50.90
1175;DHT22;576;48.418;10.074;2024-01-11T06:30:52;21.20;50.90
1175;DHT22;576;48.418;10.074;2024-01-11T06:33:20;21.20;51.00
1175;DHT22;576;48.418;10.074;2024-01-11T06:35:50;21.20;51.00
1175;DHT22;576;48.418;10.074;2024-01-11T06:38:18;21.20;51.10
1175;DHT22;576;48.418;10.074;2024-01-11T06:40:47;21.20;51.20
1175;DHT22;576;48.418;10.074;2024-01-11T06:43:15;21.20;51.30
1175;DHT22;576;48.418;10.074;2024-01-11T06:45:44;21.20;51.40
1175;DHT22;576;48.418;10.074;2024-01-11T06:48:12;21.20;51.30
1175;DHT22;576;48.418;10.074;2024-01-11T06:50:41;21.20;51.30
1175;DHT22;576;48.418;10.074;2024-01-11T06:53:10;21.20;51.30
1175;DHT22;576;48.418;10.074;2024-01-11T06:55:39;21.20;51.40
1175;DHT22;576;48.418;10.074;2024-01-11T06:58:08;21.20;51.40
1175;DHT22;576;48.418;10.074;2024-01-11T07:00:36;21.20;51.40
1175;DHT22;576;48.418;10.074;2024-01-11T07:03:10;21.20;51.40
1175;DHT22;576;48.418;10.074;2024-01-11T07:05:38;21.20;51.50
1175;DHT22;576;48.418;10.074;2024-01-11T07:08:07;21.20;51.60
1175;DHT22;576;48.418;10.074;2024-01-11T07:10:36;21.20;51.70
1175;DHT22;576;48.418;10.074;2024-01-11T07:13:05;21.20;51.70
1175;DHT22;576;48.418;10.074;2024-01-11T07:15:34;21.20;51.80
1175;DHT22;576;48.418;10.074;2024-01-11T07:18:02;21.20;51.80
1175;DHT22;576;48.418;10.074;2024-01-11T07:20:31;21.20;51.70
1175;DHT22;576;48.418;10.074;2024-01-11T07:22:59;21.20;51.70
1175;DHT22;576;48.418;10.074;2024-01-11T07:25:27;21.20;51.60
1175;DHT22;576;48.418;10.074;2024-01-11T07:27:57;21.20;51.60
1175;DHT22;576;48.418;10.074;2024-01-11T07:30:26;21.20;51.60
1175;DHT22;576;48.418;10.074;2024-01-11T07:32:54;21.20;51.60
1175;DHT22;576;48.418;10.074;2024-01-11T07:35:22;21.20;51.50
1175;DHT22;576;48.418;10.074;2024-01-11T07:37:51;21.20;51.50
1175;DHT22;576;48.418;10.074;2024-01-11T07:40:19;21.20;51.60
1175;DHT22;576;48.418;10.074;2024-01-11T07:42:47;21.20;51.60
1175;DHT22;576;48.418;10.074;2024-01-11T07:45:18;21.20;51.50
1175;DHT22;576;48.418;10.074;2024-01-11T07:47:46;21.20;51.50
1175;DHT22;576;48.418;10.074;2024-01-11T07:50:15;21.20;51.50
1175;DHT22;576;48.418;10.074;2024-01-11T07:52:43;21.20;51.50
1175;DHT22;576;48.418;10.074;2024-01-11T07:55:12;21.20;51.40
1175;DHT22;576;48.418;10.074;2024-01-11T07:57:40;21.20;51.40
1175;DHT22;576;48.418;10.074;2024-01-11T08:00:09;21.20;51.30
1175;DHT22;576;48.418;10.074;2024-01-11T08:02:42;21.20;51.30
1175;DHT22;576;48.418;10.074;2024-01-11T08:05:10;21.20;51.30
1175;DHT22;576;48.418;10.074;2024-01-11T08:07:39;21.20;51.20
1175;DHT22;576;48.418;10.074;2024-01-11T08:10:09;21.20;51.20
1175;DHT22;576;48.418;10.074;2024-01-11T08:12:37;21.20;51.10
1175;DHT22;576;48.418;10.074;2024-01-11T08:15:06;21.20;51.10
1175;DHT22;576;48.418;10.074;2024-01-11T08:17:44;21.20;51.10
1175;DHT22;576;48.418;10.074;2024-01-11T08:20:15;21.20;51.10
1175;DHT22;576;48.418;10.074;2024-01-11T08:22:43;21.20;51.00
1175;DHT22;576;48.418;10.074;2024-01-11T08:25:13;21.20;51.00
1175;DHT22;576;48.418;10.074;2024-01-11T08:27:41;21.20;51.00
1175;DHT22;576;48.418;10.074;2024-01-11T08:30:10;21.20;51.00
1175;DHT22;576;48.418;10.074;2024-01-11T08:32:39;21.20;51.00
1175;DHT22;576;48.418;10.074;2024-01-11T08:35:11;21.20;51.10
1175;DHT22;576;48.418;10.074;2024-01-11T08:37:40;21.20;51.00
1175;DHT22;576;48.418;10.074;2024-01-11T08:40:09;21.20;51.00
1175;DHT22;576;48.418;10.074;2024-01-11T08:42:38;21.20;51.00
1175;DHT22;576;48.418;10.074;2024-01-11T08:45:08;21.20;51.10
1175;DHT22;576;48.418;10.074;2024-01-11T08:47:36;21.20;51.10
1175;DHT22;576;48.418;10.074;2024-01-11T08:50:07;21.20;51.10
1175;DHT22;576;48.418;10.074;2024-01-11T08:52:36;21.20;51.10
1175;DHT22;576;48.418;10.074;2024-01-11T08:55:06;21.20;51.20
1175;DHT22;576;48.418;10.074;2024-01-11T08:57:35;21.20;51.20
1175;DHT22;576;48.418;10.074;2024-01-11T09:00:05;21.20;51.20
1175;DHT22;576;48.418;10.074;2024-01-11T09:02:34;21.20;51.20
1175;DHT22;576;48.418;10.074;2024-01-11T09:05:03;21.20;51.20
1175;DHT22;576;48.418;10.074;2024-01-11T09:07:37;21.20;51.10
1175;DHT22;576;48.418;10.074;2024-01-11T09:10:07;21.20;51.10
1175;DHT22;576;48.418;10.074;2024-01-11T09:12:36;21.20;51.10
1175;DHT22;576;48.418;10.074;2024-01-11T09:15:05;21.20;51.10
1175;DHT22;576;48.418;10.074;2024-01-11T09:17:35;21.20;51.10
1175;DHT22;576;48.418;10.074;2024-01-11T09:20:05;21.20;51.10
1175;DHT22;576;48.418;10.074;2024-01-11T09:22:33;21.20;51.10
1175;DHT22;576;48.418;10.074;2024-01-11T09:25:04;21.20;51.10
1175;DHT22;576;48.418;10.074;2024-01-11T09:27:34;21.20;51.00
1175;DHT22;576;48.418;10.074;2024-01-11T09:30:03;21.30;51.00
1175;DHT22;576;48.418;10.074;2024-01-11T09:32:31;21.30;51.00
1175;DHT22;576;48.418;10.074;2024-01-11T09:35:00;21.30;51.10
1175;DHT22;576;48.418;10.074;2024-01-11T09:37:28;21.30;51.10
1175;DHT22;576;48.418;10.074;2024-01-11T09:39:56;21.30;51.00
1175;DHT22;576;48.418;10.074;2024-01-11T09:42:26;21.30;51.00
1175;DHT22;576;48.418;10.074;2024-01-11T09:44:56;21.30;51.10
1175;DHT22;576;48.418;10.074;2024-01-11T09:47:25;21.30;51.00
1175;DHT22;576;48.418;10.074;2024-01-11T09:49:54;21.30;51.00
1175;DHT22;576;48.418;10.074;2024-01-11T09:52:23;21.30;50.90
1175;DHT22;576;48.418;10.074;2024-01-11T09:54:52;21.30;50.90
1175;DHT22;576;48.418;10.074;2024-01-11T09:57:28;21.30;50.90
1175;DHT22;576;48.418;10.074;2024-01-11T09:59:57;21.30;50.80
1175;DHT22;576;48.418;10.074;2024-01-11T10:02:26;21.30;50.80
1175;DHT22;576;48.418;10.074;2024-01-11T10:04:54;21.30;50.70
1175;DHT22;576;48.418;10.074;2024-01-11T10:07:24;21.30;50.70
1175;DHT22;576;48.418;10.074;2024-01-11T10:09:52;21.30;50.70
1175;DHT22;576;48.418;10.074;2024-01-11T10:12:21;21.30;50.70
1175;DHT22;576;48.418;10.074;2024-01-11T10:14:53;21.30;50.60
1175;DHT22;576;48.418;10.074;2024-01-11T10:17:22;21.30;50.60
1175;DHT22;576;48.418;10.074;2024-01-11T10:19:53;21.30;50.60
1175;DHT22;576;48.418;10.074;2024-01-11T10:22:22;21.30;50.60
1175;DHT22;576;48.418;10.074;2024-01-11T10:25:08;21.30;50.70
1175;DHT22;576;48.418;10.074;2024-01-11T10:27:39;21.30;50.70
1175;DHT22;576;48.418;10.074;2024-01-11T10:30:11;21.30;50.70
1175;DHT22;576;48.418;10.074;2024-01-11T10:32:44;21.30;50.70
1175;DHT22;576;48.418;10.074;2024-01-11T10:35:12;21.30;50.80
1175;DHT22;576;48.418;10.074;2024-01-11T10:37:41;21.30;50.80
1175;DHT22;576;48.418;10.074;2024-01-11T10:40:11;21.30;50.80
1175;DHT22;576;48.418;10.074;2024-01-11T10:42:42;21.30;50.80
1175;DHT22;576;48.418;10.074;2024-01-11T10:45:14;21.30;50.80
1175;DHT22;576;48.418;10.074;2024-01-11T10:47:50;21.30;50.90
1175;DHT22;576;48.418;10.074;2024-01-11T10:50:20;21.30;50.90
1175;DHT22;576;48.418;10.074;2024-01-11T10:53:03;21.30;50.80
1175;DHT22;576;48.418;10.074;2024-01-11T10:55:33;21.30;50.80
1175;DHT22;576;48.418;10.074;2024-01-11T10:58:02;21.30;50.80
1175;DHT22;576;48.418;10.074;2024-01-11T11:00:34;21.40;50.80
1175;DHT22;576;48.418;10.074;2024-01-11T11:03:05;21.40;50.80
1175;DHT22;576;48.418;10.074;2024-01-11T11:05:35;21.40;50.80
1175;DHT22;576;48.418;10.074;2024-01-11T11:08:04;21.40;50.70
1175;DHT22;576;48.418;10.074;2024-01-11T11:10:34;21.40;50.70
1175;DHT22;576;48.418;10.074;2024-01-11T11:13:03;21.40;50.60
1175;DHT22;576;48.418;10.074;2024-01-11T11:15:35;21.40;50.60
1175;DHT22;576;48.418;10.074;2024-01-11T11:18:05;21.40;50.60
1175;DHT22;576;48.418;10.074;2024-01-11T11:20:34;21.40;50.60
1175;DHT22;576;48.418;10.074;2024-01-11T11:23:06;21.40;50.60
1175;DHT22;576;48.418;10.074;2024-01-11T11:25:36;21.40;50.60
1175;DHT22;576;48.418;10.074;2024-01-11T11:28:05;21.40;50.60
1175;DHT22;576;48.418;10.074;2024-01-11T11:30:37;21.40;50.60
1175;DHT22;576;48.418;10.074;2024-01-11T11:33:09;21.40;50.60
1175;DHT22;576;48.418;10.074;2024-01-11T11:35:38;21.40;50.60
1175;DHT22;576;48.418;10.074;2024-01-11T11:38:07;21.50;50.50
1175;DHT22;576;48.418;10.074;2024-01-11T11:40:37;21.50;50.50
1175;DHT22;576;48.418;10.074;2024-01-11T11:43:07;21.50;50.40
1175;DHT22;576;48.418;10.074;2024-01-11T11:45:37;21.50;50.40
1175;DHT22;576;48.418;10.074;2024-01-11T11:51:08;21.50;50.30
1175;DHT22;576;48.418;10.074;2024-01-11T11:53:37;21.50;50.30
1175;DHT22;576;48.418;10.074;2024-01-11T11:56:07;21.50;50.30
1175;DHT22;576;48.418;10.074;2024-01-11T11:58:36;21.50;50.20
1175;DHT22;576;48.418;10.074;2024-01-11T12:01:07;21.50;50.20
1175;DHT22;576;48.418;10.074;2024-01-11T12:03:37;21.50;50.20
1175;DHT22;576;48.418;10.074;2024-01-11T12:06:07;21.50;50.10
1175;DHT22;576;48.418;10.074;2024-01-11T12:08:36;21.50;50.10
1175;DHT22;576;48.418;10.074;2024-01-11T12:11:05;21.60;50.00
1175;DHT22;576;48.418;10.074;2024-01-11T12:13:34;21.60;50.00
1175;DHT22;576;48.418;10.074;2024-01-11T12:16:03;21.70;49.90
1175;DHT22;576;48.418;10.074;2024-01-11T12:18:33;21.70;49.80
1175;DHT22;576;48.418;10.074;2024-01-11T12:21:01;21.80;49.70
1175;DHT22;576;48.418;10.074;2024-01-11T12:23:30;21.80;49.70
1175;DHT22;576;48.418;10.074;2024-01-11T12:26:01;21.90;49.70
1175;DHT22;576;48.418;10.074;2024-01-11T12:28:30;22.00;49.60
1175;DHT22;576;48.418;10.074;2024-01-11T12:30:59;22.00;49.50
1175;DHT22;576;48.418;10.074;2024-01-11T12:33:27;22.10;49.40
1175;DHT22;576;48.418;10.074;2024-01-11T12:35:57;22.10;49.40
1175;DHT22;576;48.418;10.074;2024-01-11T12:38:25;22.10;49.40
1175;DHT22;576;48.418;10.074;2024-01-11T12:40:54;22.20;49.30
1175;DHT22;576;48.418;10.074;2024-01-11T12:43:22;22.20;49.20
1175;DHT22;576;48.418;10.074;2024-01-11T12:45:51;22.20;49.10
1175;DHT22;576;48.418;10.074;2024-01-11T12:48:20;22.30;49.10
1175;DHT22;576;48.418;10.074;2024-01-11T12:50:51;22.30;49.10
1175;DHT22;576;48.418;10.074;2024-01-11T12:53:41;22.30;49.30
1175;DHT22;576;48.418;10.074;2024-01-11T12:56:09;22.40;49.70
1175;DHT22;576;48.418;10.074;2024-01-11T12:58:38;22.50;49.90
1175;DHT22;576;48.418;10.074;2024-01-11T13:01:07;22.50;50.00
1175;DHT22;576;48.418;10.074;2024-01-11T13:03:38;22.60;50.10
1175;DHT22;576;48.418;10.074;2024-01-11T13:06:07;22.60;50.00
1175;DHT22;576;48.418;10.074;2024-01-11T13:08:38;22.70;50.10
1175;DHT22;576;48.418;10.074;2024-01-11T13:11:08;22.70;50.10
1175;DHT22;576;48.418;10.074;2024-01-11T13:13:38;22.70;50.20
1175;DHT22;576;48.418;10.074;2024-01-11T13:16:06;22.70;50.20
1175;DHT22;576;48.418;10.074;2024-01-11T13:18:38;22.70;50.20
1175;DHT22;576;48.418;10.074;2024-01-11T13:21:06;22.70;50.20
1175;DHT22;576;48.418;10.074;2024-01-11T13:23:35;22.70;50.30
1175;DHT22;576;48.418;10.074;2024-01-11T13:26:05;22.80;50.30
1175;DHT22;576;48.418;10.074;2024-01-11T13:28:35;22.80;50.30
1175;DHT22;576;48.418;10.074;2024-01-11T13:31:03;22.80;50.40
1175;DHT22;576;48.418;10.074;2024-01-11T13:33:31;22.80;50.40
1175;DHT22;576;48.418;10.074;2024-01-11T13:36:00;22.80;50.40
1175;DHT22;576;48.418;10.074;2024-01-11T13:38:28;22.80;50.40
1175;DHT22;576;48.418;10.074;2024-01-11T13:40:56;22.80;50.40
1175;DHT22;576;48.418;10.074;2024-01-11T13:43:25;22.80;50.40
1175;DHT22;576;48.418;10.074;2024-01-11T13:45:54;22.80;50.50
1175;DHT22;576;48.418;10.074;2024-01-11T13:48:23;22.90;50.50
1175;DHT22;576;48.418;10.074;2024-01-11T13:50:51;22.90;50.60
1175;DHT22;576;48.418;10.074;2024-01-11T13:53:20;22.90;50.50
1175;DHT22;576;48.418;10.074;2024-01-11T13:55:48;23.00;50.60
1175;DHT22;576;48.418;10.074;2024-01-11T13:58:16;23.00;50.60
1175;DHT22;576;48.418;10.074;2024-01-11T14:00:45;23.00;50.70
1175;DHT22;576;48.418;10.074;2024-01-11T14:03:16;23.10;50.70
1175;DHT22;576;48.418;10.074;2024-01-11T14:05:44;23.10;50.70
1175;DHT22;576;48.418;10.074;2024-01-11T14:08:13;23.10;50.80
1175;DHT22;576;48.418;10.074;2024-01-11T14:10:41;23.10;50.80
1175;DHT22;576;48.418;10.074;2024-01-11T14:13:09;23.10;50.90
1175;DHT22;576;48.418;10.074;2024-01-11T14:15:37;23.10;50.90
1175;DHT22;576;48.418;10.074;2024-01-11T14:18:07;23.10;51.00
1175;DHT22;576;48.418;10.074;2024-01-11T14:20:37;23.10;51.00
1175;DHT22;576;48.418;10.074;2024-01-11T14:23:06;23.00;51.20
1175;DHT22;576;48.418;10.074;2024-01-11T14:25:34;23.00;51.20
1175;DHT22;576;48.418;10.074;2024-01-11T14:28:04;23.00;51.30
1175;DHT22;576;48.418;10.074;2024-01-11T14:30:32;23.00;51.40
1175;DHT22;576;48.418;10.074;2024-01-11T14:33:00;23.00;51.60
1175;DHT22;576;48.418;10.074;2024-01-11T14:35:29;23.00;51.60
1175;DHT22;576;48.418;10.074;2024-01-11T14:37:59;23.00;51.70
1175;DHT22;576;48.418;10.074;2024-01-11T14:40:27;23.00;51.80
1175;DHT22;576;48.418;10.074;2024-01-11T14:42:56;22.90;51.80
1175;DHT22;576;48.418;10.074;2024-01-11T14:45:24;22.90;51.90
1175;DHT22;576;48.418;10.074;2024-01-11T14:47:53;22.90;52.00
1175;DHT22;576;48.418;10.074;2024-01-11T14:50:23;22.90;52.00
1175;DHT22;576;48.418;10.074;2024-01-11T14:52:52;22.90;52.00
1175;DHT22;576;48.418;10.074;2024-01-11T14:55:22;22.90;52.00
1175;DHT22;576;48.418;10.074;2024-01-11T14:57:50;22.90;51.60
1175;DHT22;576;48.418;10.074;2024-01-11T15:00:21;22.80;50.90
1175;DHT22;576;48.418;10.074;2024-01-11T15:02:51;22.80;50.50
1175;DHT22;576;48.418;10.074;2024-01-11T15:05:19;22.80;50.50
1175;DHT22;576;48.418;10.074;2024-01-11T15:07:47;22.80;50.50
1175;DHT22;576;48.418;10.074;2024-01-11T15:10:15;22.70;50.40
1175;DHT22;576;48.418;10.074;2024-01-11T15:12:46;22.70;50.40
1175;DHT22;576;48.418;10.074;2024-01-11T15:15:14;22.70;50.40
1175;DHT22;576;48.418;10.074;2024-01-11T15:17:42;22.70;50.40
1175;DHT22;576;48.418;10.074;2024-01-11T15:20:11;22.60;50.40
1175;DHT22;576;48.418;10.074;2024-01-11T15:22:40;22.60;50.40
1175;DHT22;576;48.418;10.074;2024-01-11T15:25:08;22.60;50.30
1175;DHT22;576;48.418;10.074;2024-01-11T15:27:37;22.60;50.30
1175;DHT22;576;48.418;10.074;2024-01-11T15:30:08;22.60;50.40
1175;DHT22;576;48.418;10.074;2024-01-11T15:32:39;22.60;50.50
1175;DHT22;576;48.418;10.074;2024-01-11T15:35:07;22.50;50.50
1175;DHT22;576;48.418;10.074;2024-01-11T15:37:36;22.50;50.50
1175;DHT22;576;48.418;10.074;2024-01-11T15:40:05;22.50;50.50
1175;DHT22;576;48.418;10.074;2024-01-11T15:42:35;22.50;50.50
1175;DHT22;576;48.418;10.074;2024-01-11T15:45:05;22.50;50.50
1175;DHT22;576;48.418;10.074;2024-01-11T15:47:35;22.50;50.50
1175;DHT22;576;48.418;10.074;2024-01-11T15:50:05;22.50;50.50
1175;DHT22;576;48.418;10.074;2024-01-11T15:52:35;22.40;50.50
1175;DHT22;576;48.418;10.074;2024-01-11T15:55:05;22.40;50.50
1175;DHT22;576;48.418;10.074;2024-01-11T15:57:36;22.40;50.60
1175;DHT22;576;48.418;10.074;2024-01-11T16:00:05;22.40;50.60
1175;DHT22;576;48.418;10.074;2024-01-11T16:02:42;22.40;50.60
1175;DHT22;576;48.418;10.074;2024-01-11T16:05:10;22.40;50.60
1175;DHT22;576;48.418;10.074;2024-01-11T16:07:38;22.30;50.70
1175;DHT22;576;48.418;10.074;2024-01-11T16:10:08;22.30;50.70
1175;DHT22;576;48.418;10.074;2024-01-11T16:12:38;22.30;50.70
1175;DHT22;576;48.418;10.074;2024-01-11T16:15:06;22.30;50.70
1175;DHT22;576;48.418;10.074;2024-01-11T16:17:35;22.30;50.70